sensor_id;sensor_type;location;lat;lon;timestamp;P1;durP1;ratioP1;P2;durP2;ratioP2
30247;SDS011;17063;50.892;4.702;2023-08-17T00:02:14;4.87;;;2.20;;
30247;SDS011;17063;50.892;4.702;2023-08-17T00:04:41;4.03;;;2.10;;
30247;SDS011;17063;50.892;4.702;2023-08-17T00:07:08;4.50;;;1.90;;
30247;SDS011;17063;50.892;4.702;2023-08-17T00:09:34;3.27;;;1.77;;
30247;SDS011;17063;50.892;4.702;2023-08-17T00:12:01;3.20;;;2.10;;
30247;SDS011;17063;50.892;4.702;2023-08-17T00:14:29;2.83;;;1.97;;
30247;SDS011;17063;50.892;4.702;2023-08-17T00:16:57;2.80;;;1.87;;
30247;SDS011;17063;50.892;4.702;2023-08-17T00:19:24;3.77;;;2.10;;
30247;SDS011;17063;50.892;4.702;2023-08-17T00:21:51;2.80;;;1.90;;
30247;SDS011;17063;50.892;4.702;2023-08-17T00:24:18;4.87;;;1.70;;
30247;SDS011;17063;50.892;4.702;2023-08-17T00:26:45;4.33;;;2.03;;
30247;SDS011;17063;50.892;4.702;2023-08-17T00:29:12;2.93;;;1.63;;
30247;SDS011;17063;50.892;4.702;2023-08-17T00:31:41;7.47;;;1.90;;
30247;SDS011;17063;50.892;4.702;2023-08-17T00:34:08;4.30;;;1.80;;
30247;SDS011;17063;50.892;4.702;2023-08-17T00:36:35;4.43;;;1.80;;
30247;SDS011;17063;50.892;4.702;2023-08-17T00:39:02;3.07;;;1.50;;
30247;SDS011;17063;50.892;4.702;2023-08-17T00:41:29;4.57;;;1.57;;
30247;SDS011;17063;50.892;4.702;2023-08-17T00:43:57;3.60;;;1.60;;
30247;SDS011;17063;50.892;4.702;2023-08-17T00:46:24;2.87;;;2.20;;
30247;SDS011;17063;50.892;4.702;2023-08-17T00:48:51;5.33;;;1.70;;
30247;SDS011;17063;50.892;4.702;2023-08-17T00:51:18;1.83;;;1.47;;
30247;SDS011;17063;50.892;4.702;2023-08-17T00:53:47;3.90;;;1.90;;
30247;SDS011;17063;50.892;4.702;2023-08-17T00:56:14;2.70;;;1.70;;
30247;SDS011;17063;50.892;4.702;2023-08-17T00:58:41;2.13;;;1.80;;
30247;SDS011;17063;50.892;4.702;2023-08-17T01:01:09;4.80;;;1.83;;
30247;SDS011;17063;50.892;4.702;2023-08-17T01:03:36;3.60;;;1.60;;
30247;SDS011;17063;50.892;4.702;2023-08-17T01:06:03;3.63;;;1.60;;
30247;SDS011;17063;50.892;4.702;2023-08-17T01:08:30;3.50;;;1.60;;
30247;SDS011;17063;50.892;4.702;2023-08-17T01:10:59;2.20;;;1.90;;
30247;SDS011;17063;50.892;4.702;2023-08-17T01:13:53;2.77;;;1.80;;
30247;SDS011;17063;50.892;4.702;2023-08-17T01:16:31;5.73;;;2.13;;
30247;SDS011;17063;50.892;4.702;2023-08-17T01:19:00;1.97;;;1.73;;
30247;SDS011;17063;50.892;4.702;2023-08-17T01:21:35;2.87;;;1.63;;
30247;SDS011;17063;50.892;4.702;2023-08-17T01:24:04;4.17;;;1.87;;
30247;SDS011;17063;50.892;4.702;2023-08-17T01:26:31;5.37;;;2.00;;
30247;SDS011;17063;50.892;4.702;2023-08-17T01:28:58;3.17;;;1.67;;
30247;SDS011;17063;50.892;4.702;2023-08-17T01:31:30;2.37;;;1.70;;
30247;SDS011;17063;50.892;4.702;2023-08-17T01:34:04;2.50;;;1.53;;
30247;SDS011;17063;50.892;4.702;2023-08-17T01:36:36;2.73;;;1.90;;
30247;SDS011;17063;50.892;4.702;2023-08-17T01:39:05;6.13;;;1.87;;
30247;SDS011;17063;50.892;4.702;2023-08-17T01:41:33;3.43;;;1.70;;
30247;SDS011;17063;50.892;4.702;2023-08-17T01:44:01;4.27;;;1.87;;
30247;SDS011;17063;50.892;4.702;2023-08-17T01:46:33;1.87;;;1.70;;
30247;SDS011;17063;50.892;4.702;2023-08-17T01:49:00;3.23;;;1.70;;
30247;SDS011;17063;50.892;4.702;2023-08-17T01:51:30;4.13;;;1.70;;
30247;SDS011;17063;50.892;4.702;2023-08-17T01:53:57;2.17;;;1.80;;
30247;SDS011;17063;50.892;4.702;2023-08-17T01:56:24;4.40;;;1.83;;
30247;SDS011;17063;50.892;4.702;2023-08-17T01:58:50;2.03;;;1.83;;
30247;SDS011;17063;50.892;4.702;2023-08-17T02:01:17;6.30;;;2.30;;
30247;SDS011;17063;50.892;4.702;2023-08-17T02:03:44;3.83;;;1.87;;
30247;SDS011;17063;50.892;4.702;2023-08-17T02:06:11;3.03;;;2.00;;
30247;SDS011;17063;50.892;4.702;2023-08-17T02:08:38;4.63;;;1.87;;
30247;SDS011;17063;50.892;4.702;2023-08-17T02:11:05;10.67;;;2.30;;
30247;SDS011;17063;50.892;4.702;2023-08-17T02:13:32;5.10;;;1.90;;
30247;SDS011;17063;50.892;4.702;2023-08-17T02:16:03;3.90;;;1.97;;
30247;SDS011;17063;50.892;4.702;2023-08-17T02:18:31;5.17;;;1.87;;
30247;SDS011;17063;50.892;4.702;2023-08-17T02:21:01;4.00;;;1.53;;
30247;SDS011;17063;50.892;4.702;2023-08-17T02:23:28;3.17;;;1.93;;
30247;SDS011;17063;50.892;4.702;2023-08-17T02:25:54;3.40;;;1.87;;
30247;SDS011;17063;50.892;4.702;2023-08-17T02:28:21;6.20;;;2.23;;
30247;SDS011;17063;50.892;4.702;2023-08-17T02:30:48;5.27;;;1.77;;
30247;SDS011;17063;50.892;4.702;2023-08-17T02:33:16;2.03;;;1.60;;
30247;SDS011;17063;50.892;4.702;2023-08-17T02:35:42;8.80;;;3.00;;
30247;SDS011;17063;50.892;4.702;2023-08-17T02:38:15;3.57;;;2.37;;
30247;SDS011;17063;50.892;4.702;2023-08-17T02:40:42;2.57;;;1.83;;
30247;SDS011;17063;50.892;4.702;2023-08-17T02:43:09;3.43;;;2.00;;
30247;SDS011;17063;50.892;4.702;2023-08-17T02:45:36;6.73;;;1.83;;
30247;SDS011;17063;50.892;4.702;2023-08-17T02:48:03;1.73;;;1.63;;
30247;SDS011;17063;50.892;4.702;2023-08-17T02:50:30;4.40;;;1.97;;
30247;SDS011;17063;50.892;4.702;2023-08-17T02:52:57;6.03;;;2.00;;
30247;SDS011;17063;50.892;4.702;2023-08-17T02:55:24;4.17;;;1.90;;
30247;SDS011;17063;50.892;4.702;2023-08-17T02:57:51;2.83;;;1.83;;
30247;SDS011;17063;50.892;4.702;2023-08-17T03:00:18;2.63;;;1.73;;
30247;SDS011;17063;50.892;4.702;2023-08-17T03:02:45;4.83;;;1.93;;
30247;SDS011;17063;50.892;4.702;2023-08-17T03:05:12;2.77;;;1.70;;
30247;SDS011;17063;50.892;4.702;2023-08-17T03:07:39;4.70;;;2.00;;
30247;SDS011;17063;50.892;4.702;2023-08-17T03:10:07;2.70;;;2.23;;
30247;SDS011;17063;50.892;4.702;2023-08-17T03:12:34;2.47;;;1.67;;
30247;SDS011;17063;50.892;4.702;2023-08-17T03:15:01;5.43;;;2.23;;
30247;SDS011;17063;50.892;4.702;2023-08-17T03:17:28;8.17;;;1.97;;
30247;SDS011;17063;50.892;4.702;2023-08-17T03:19:55;2.53;;;2.00;;
30247;SDS011;17063;50.892;4.702;2023-08-17T03:22:26;6.17;;;2.00;;
30247;SDS011;17063;50.892;4.702;2023-08-17T03:24:56;5.20;;;1.80;;
30247;SDS011;17063;50.892;4.702;2023-08-17T03:27:23;4.57;;;1.53;;
30247;SDS011;17063;50.892;4.702;2023-08-17T03:29:51;4.37;;;2.20;;
30247;SDS011;17063;50.892;4.702;2023-08-17T03:32:18;5.40;;;2.10;;
30247;SDS011;17063;50.892;4.702;2023-08-17T03:34:45;3.30;;;2.00;;
30247;SDS011;17063;50.892;4.702;2023-08-17T03:37:12;4.33;;;2.17;;
30247;SDS011;17063;50.892;4.702;2023-08-17T03:39:39;6.10;;;1.93;;
30247;SDS011;17063;50.892;4.702;2023-08-17T03:42:07;3.93;;;1.80;;
30247;SDS011;17063;50.892;4.702;2023-08-17T03:44:34;4.60;;;2.00;;
30247;SDS011;17063;50.892;4.702;2023-08-17T03:47:01;4.73;;;1.87;;
30247;SDS011;17063;50.892;4.702;2023-08-17T03:49:29;4.13;;;2.10;;
30247;SDS011;17063;50.892;4.702;2023-08-17T03:51:55;4.77;;;2.10;;
30247;SDS011;17063;50.892;4.702;2023-08-17T03:54:23;3.53;;;2.10;;
30247;SDS011;17063;50.892;4.702;2023-08-17T03:56:49;5.37;;;2.33;;
30247;SDS011;17063;50.892;4.702;2023-08-17T03:59:17;6.27;;;2.37;;
30247;SDS011;17063;50.892;4.702;2023-08-17T04:01:44;4.90;;;2.13;;
30247;SDS011;17063;50.892;4.702;2023-08-17T04:04:11;7.70;;;2.17;;
30247;SDS011;17063;50.892;4.702;2023-08-17T04:06:37;3.00;;;2.00;;
30247;SDS011;17063;50.892;4.702;2023-08-17T04:09:06;4.47;;;2.10;;
30247;SDS011;17063;50.892;4.702;2023-08-17T04:11:37;2.50;;;1.70;;
30247;SDS011;17063;50.892;4.702;2023-08-17T04:14:04;2.50;;;1.80;;
30247;SDS011;17063;50.892;4.702;2023-08-17T04:16:32;3.50;;;2.03;;
30247;SDS011;17063;50.892;4.702;2023-08-17T04:19:01;2.87;;;1.80;;
30247;SDS011;17063;50.892;4.702;2023-08-17T04:21:28;4.67;;;2.10;;
30247;SDS011;17063;50.892;4.702;2023-08-17T04:23:55;2.50;;;2.03;;
30247;SDS011;17063;50.892;4.702;2023-08-17T04:26:22;5.20;;;2.30;;
30247;SDS011;17063;50.892;4.702;2023-08-17T04:28:50;2.83;;;2.00;;
30247;SDS011;17063;50.892;4.702;2023-08-17T04:31:18;6.27;;;2.57;;
30247;SDS011;17063;50.892;4.702;2023-08-17T04:33:52;5.70;;;2.13;;
30247;SDS011;17063;50.892;4.702;2023-08-17T04:36:19;2.53;;;2.00;;
30247;SDS011;17063;50.892;4.702;2023-08-17T04:38:46;3.70;;;1.83;;
30247;SDS011;17063;50.892;4.702;2023-08-17T04:41:13;4.27;;;2.10;;
30247;SDS011;17063;50.892;4.702;2023-08-17T04:43:40;3.73;;;1.97;;
30247;SDS011;17063;50.892;4.702;2023-08-17T04:46:07;3.50;;;2.10;;
30247;SDS011;17063;50.892;4.702;2023-08-17T04:48:35;4.00;;;2.07;;
30247;SDS011;17063;50.892;4.702;2023-08-17T04:51:02;3.73;;;1.93;;
30247;SDS011;17063;50.892;4.702;2023-08-17T04:53:30;5.87;;;2.60;;
30247;SDS011;17063;50.892;4.702;2023-08-17T04:55:58;3.40;;;1.90;;
30247;SDS011;17063;50.892;4.702;2023-08-17T04:58:25;4.53;;;2.20;;
30247;SDS011;17063;50.892;4.702;2023-08-17T05:00:52;4.30;;;2.10;;
30247;SDS011;17063;50.892;4.702;2023-08-17T05:03:19;3.83;;;2.07;;
30247;SDS011;17063;50.892;4.702;2023-08-17T05:05:59;4.67;;;2.00;;
30247;SDS011;17063;50.892;4.702;2023-08-17T05:08:26;3.97;;;1.97;;
30247;SDS011;17063;50.892;4.702;2023-08-17T05:10:54;3.03;;;2.03;;
30247;SDS011;17063;50.892;4.702;2023-08-17T05:13:24;12.33;;;2.37;;
30247;SDS011;17063;50.892;4.702;2023-08-17T05:15:52;6.27;;;2.30;;
30247;SDS011;17063;50.892;4.702;2023-08-17T05:18:20;10.23;;;2.17;;
30247;SDS011;17063;50.892;4.702;2023-08-17T05:20:47;2.87;;;1.93;;
30247;SDS011;17063;50.892;4.702;2023-08-17T05:23:14;7.20;;;2.53;;
30247;SDS011;17063;50.892;4.702;2023-08-17T05:25:45;4.53;;;1.83;;
30247;SDS011;17063;50.892;4.702;2023-08-17T05:28:13;3.50;;;2.00;;
30247;SDS011;17063;50.892;4.702;2023-08-17T05:30:40;6.67;;;2.17;;
30247;SDS011;17063;50.892;4.702;2023-08-17T05:33:07;7.03;;;2.30;;
30247;SDS011;17063;50.892;4.702;2023-08-17T05:35:34;7.10;;;2.50;;
30247;SDS011;17063;50.892;4.702;2023-08-17T05:38:01;6.07;;;2.23;;
30247;SDS011;17063;50.892;4.702;2023-08-17T05:40:31;3.70;;;2.27;;
30247;SDS011;17063;50.892;4.702;2023-08-17T05:42:58;5.57;;;2.43;;
30247;SDS011;17063;50.892;4.702;2023-08-17T05:45:25;7.43;;;2.20;;
30247;SDS011;17063;50.892;4.702;2023-08-17T05:47:52;4.47;;;2.20;;
30247;SDS011;17063;50.892;4.702;2023-08-17T05:50:19;7.37;;;2.13;;
30247;SDS011;17063;50.892;4.702;2023-08-17T05:52:46;7.43;;;2.30;;
30247;SDS011;17063;50.892;4.702;2023-08-17T05:55:13;6.67;;;2.30;;
30247;SDS011;17063;50.892;4.702;2023-08-17T05:57:40;8.27;;;2.27;;
30247;SDS011;17063;50.892;4.702;2023-08-17T06:00:07;5.80;;;2.83;;
30247;SDS011;17063;50.892;4.702;2023-08-17T06:02:41;5.80;;;2.50;;
30247;SDS011;17063;50.892;4.702;2023-08-17T06:05:08;6.87;;;2.57;;
30247;SDS011;17063;50.892;4.702;2023-08-17T06:07:35;5.10;;;2.30;;
30247;SDS011;17063;50.892;4.702;2023-08-17T06:10:03;6.13;;;2.90;;
30247;SDS011;17063;50.892;4.702;2023-08-17T06:12:30;6.60;;;2.83;;
30247;SDS011;17063;50.892;4.702;2023-08-17T06:14:57;5.33;;;2.80;;
30247;SDS011;17063;50.892;4.702;2023-08-17T06:17:24;6.10;;;2.83;;
30247;SDS011;17063;50.892;4.702;2023-08-17T06:19:51;6.10;;;2.23;;
30247;SDS011;17063;50.892;4.702;2023-08-17T06:22:18;7.77;;;2.97;;
30247;SDS011;17063;50.892;4.702;2023-08-17T06:24:45;6.23;;;2.50;;
30247;SDS011;17063;50.892;4.702;2023-08-17T06:27:15;3.93;;;2.33;;
30247;SDS011;17063;50.892;4.702;2023-08-17T06:29:42;5.07;;;2.50;;
30247;SDS011;17063;50.892;4.702;2023-08-17T06:32:10;5.77;;;2.17;;
30247;SDS011;17063;50.892;4.702;2023-08-17T06:34:37;7.70;;;2.83;;
30247;SDS011;17063;50.892;4.702;2023-08-17T06:37:04;5.87;;;2.57;;
30247;SDS011;17063;50.892;4.702;2023-08-17T06:39:31;5.37;;;3.00;;
30247;SDS011;17063;50.892;4.702;2023-08-17T06:41:59;5.73;;;3.03;;
30247;SDS011;17063;50.892;4.702;2023-08-17T06:44:26;8.77;;;2.93;;
30247;SDS011;17063;50.892;4.702;2023-08-17T06:46:52;6.63;;;3.57;;
30247;SDS011;17063;50.892;4.702;2023-08-17T06:49:19;4.63;;;3.33;;
30247;SDS011;17063;50.892;4.702;2023-08-17T06:51:46;5.80;;;3.20;;
30247;SDS011;17063;50.892;4.702;2023-08-17T06:54:15;10.67;;;3.20;;
30247;SDS011;17063;50.892;4.702;2023-08-17T06:56:42;13.70;;;3.50;;
30247;SDS011;17063;50.892;4.702;2023-08-17T06:59:12;11.20;;;3.27;;
30247;SDS011;17063;50.892;4.702;2023-08-17T07:01:38;8.33;;;3.23;;
30247;SDS011;17063;50.892;4.702;2023-08-17T07:04:05;10.43;;;3.73;;
30247;SDS011;17063;50.892;4.702;2023-08-17T07:06:32;8.23;;;3.60;;
30247;SDS011;17063;50.892;4.702;2023-08-17T07:08:59;5.33;;;3.50;;
30247;SDS011;17063;50.892;4.702;2023-08-17T07:11:27;7.67;;;3.23;;
30247;SDS011;17063;50.892;4.702;2023-08-17T07:13:54;7.90;;;3.90;;
30247;SDS011;17063;50.892;4.702;2023-08-17T07:16:21;6.93;;;3.27;;
30247;SDS011;17063;50.892;4.702;2023-08-17T07:18:48;7.70;;;2.93;;
30247;SDS011;17063;50.892;4.702;2023-08-17T07:21:16;8.90;;;3.20;;
30247;SDS011;17063;50.892;4.702;2023-08-17T07:23:43;7.03;;;3.20;;
30247;SDS011;17063;50.892;4.702;2023-08-17T07:26:11;6.87;;;3.30;;
30247;SDS011;17063;50.892;4.702;2023-08-17T07:28:38;8.33;;;3.50;;
30247;SDS011;17063;50.892;4.702;2023-08-17T07:31:05;7.27;;;3.30;;
30247;SDS011;17063;50.892;4.702;2023-08-17T07:33:37;9.23;;;3.30;;
30247;SDS011;17063;50.892;4.702;2023-08-17T07:36:05;7.33;;;3.00;;
30247;SDS011;17063;50.892;4.702;2023-08-17T07:38:32;8.20;;;3.50;;
30247;SDS011;17063;50.892;4.702;2023-08-17T07:40:58;9.50;;;3.17;;
30247;SDS011;17063;50.892;4.702;2023-08-17T07:43:25;5.27;;;2.87;;
30247;SDS011;17063;50.892;4.702;2023-08-17T07:45:53;6.57;;;3.37;;
30247;SDS011;17063;50.892;4.702;2023-08-17T07:48:24;7.93;;;2.97;;
30247;SDS011;17063;50.892;4.702;2023-08-17T07:50:51;6.20;;;3.27;;
30247;SDS011;17063;50.892;4.702;2023-08-17T07:53:18;6.03;;;2.83;;
30247;SDS011;17063;50.892;4.702;2023-08-17T07:55:45;4.43;;;2.73;;
30247;SDS011;17063;50.892;4.702;2023-08-17T07:58:15;7.33;;;3.10;;
30247;SDS011;17063;50.892;4.702;2023-08-17T08:00:42;7.37;;;3.03;;
30247;SDS011;17063;50.892;4.702;2023-08-17T08:03:08;11.47;;;3.13;;
30247;SDS011;17063;50.892;4.702;2023-08-17T08:05:35;7.90;;;2.80;;
30247;SDS011;17063;50.892;4.702;2023-08-17T08:08:02;6.47;;;2.90;;
30247;SDS011;17063;50.892;4.702;2023-08-17T08:10:30;9.60;;;2.97;;
30247;SDS011;17063;50.892;4.702;2023-08-17T08:12:56;7.57;;;3.03;;
30247;SDS011;17063;50.892;4.702;2023-08-17T08:15:23;8.43;;;3.53;;
30247;SDS011;17063;50.892;4.702;2023-08-17T08:17:50;5.80;;;3.20;;
30247;SDS011;17063;50.892;4.702;2023-08-17T08:20:17;6.97;;;3.13;;
30247;SDS011;17063;50.892;4.702;2023-08-17T08:22:44;5.97;;;3.13;;
30247;SDS011;17063;50.892;4.702;2023-08-17T08:25:11;7.63;;;3.67;;
30247;SDS011;17063;50.892;4.702;2023-08-17T08:27:38;6.10;;;3.00;;
30247;SDS011;17063;50.892;4.702;2023-08-17T08:30:07;10.07;;;4.13;;
30247;SDS011;17063;50.892;4.702;2023-08-17T08:32:34;7.37;;;3.83;;
30247;SDS011;17063;50.892;4.702;2023-08-17T08:35:01;8.43;;;3.80;;
30247;SDS011;17063;50.892;4.702;2023-08-17T08:37:29;6.70;;;3.90;;
30247;SDS011;17063;50.892;4.702;2023-08-17T08:39:56;8.37;;;4.87;;
30247;SDS011;17063;50.892;4.702;2023-08-17T08:42:23;10.57;;;4.87;;
30247;SDS011;17063;50.892;4.702;2023-08-17T08:44:51;10.33;;;4.97;;
30247;SDS011;17063;50.892;4.702;2023-08-17T08:47:18;9.07;;;4.50;;
30247;SDS011;17063;50.892;4.702;2023-08-17T08:49:49;11.60;;;4.00;;
30247;SDS011;17063;50.892;4.702;2023-08-17T08:52:22;5.27;;;3.73;;
30247;SDS011;17063;50.892;4.702;2023-08-17T08:54:50;8.87;;;4.33;;
30247;SDS011;17063;50.892;4.702;2023-08-17T08:57:19;7.67;;;4.63;;
30247;SDS011;17063;50.892;4.702;2023-08-17T08:59:46;10.90;;;5.47;;
30247;SDS011;17063;50.892;4.702;2023-08-17T09:02:15;11.80;;;6.10;;
30247;SDS011;17063;50.892;4.702;2023-08-17T09:04:43;15.17;;;6.23;;
30247;SDS011;17063;50.892;4.702;2023-08-17T09:07:11;12.87;;;6.27;;
30247;SDS011;17063;50.892;4.702;2023-08-17T09:09:39;11.83;;;6.40;;
30247;SDS011;17063;50.892;4.702;2023-08-17T09:12:07;9.70;;;6.03;;
30247;SDS011;17063;50.892;4.702;2023-08-17T09:14:37;11.63;;;5.80;;
30247;SDS011;17063;50.892;4.702;2023-08-17T09:17:04;14.73;;;6.17;;
30247;SDS011;17063;50.892;4.702;2023-08-17T09:19:32;11.80;;;6.73;;
30247;SDS011;17063;50.892;4.702;2023-08-17T09:22:00;14.53;;;6.27;;
30247;SDS011;17063;50.892;4.702;2023-08-17T09:24:34;12.63;;;6.30;;
30247;SDS011;17063;50.892;4.702;2023-08-17T09:27:04;16.10;;;6.43;;
30247;SDS011;17063;50.892;4.702;2023-08-17T09:29:44;8.60;;;6.07;;
30247;SDS011;17063;50.892;4.702;2023-08-17T09:32:14;9.63;;;5.83;;
30247;SDS011;17063;50.892;4.702;2023-08-17T09:34:43;9.13;;;5.50;;
30247;SDS011;17063;50.892;4.702;2023-08-17T09:37:14;9.97;;;5.67;;
30247;SDS011;17063;50.892;4.702;2023-08-17T09:39:41;8.93;;;6.17;;
30247;SDS011;17063;50.892;4.702;2023-08-17T09:42:08;10.50;;;7.13;;
30247;SDS011;17063;50.892;4.702;2023-08-17T09:44:36;12.10;;;8.03;;
30247;SDS011;17063;50.892;4.702;2023-08-17T09:47:05;11.50;;;7.97;;
30247;SDS011;17063;50.892;4.702;2023-08-17T09:49:33;14.83;;;8.17;;
30247;SDS011;17063;50.892;4.702;2023-08-17T09:52:03;12.13;;;7.07;;
30247;SDS011;17063;50.892;4.702;2023-08-17T09:54:31;13.90;;;7.87;;
30247;SDS011;17063;50.892;4.702;2023-08-17T09:56:58;11.67;;;7.20;;
30247;SDS011;17063;50.892;4.702;2023-08-17T09:59:25;14.00;;;7.00;;
30247;SDS011;17063;50.892;4.702;2023-08-17T10:01:52;12.37;;;6.90;;
30247;SDS011;17063;50.892;4.702;2023-08-17T10:04:23;11.10;;;6.57;;
30247;SDS011;17063;50.892;4.702;2023-08-17T10:06:51;8.97;;;5.77;;
30247;SDS011;17063;50.892;4.702;2023-08-17T10:09:35;8.43;;;5.83;;
30247;SDS011;17063;50.892;4.702;2023-08-17T10:12:06;10.77;;;6.13;;
30247;SDS011;17063;50.892;4.702;2023-08-17T10:14:42;13.67;;;6.13;;
30247;SDS011;17063;50.892;4.702;2023-08-17T10:17:15;12.13;;;5.90;;
30247;SDS011;17063;50.892;4.702;2023-08-17T10:19:47;11.70;;;5.50;;
30247;SDS011;17063;50.892;4.702;2023-08-17T10:22:20;11.07;;;5.80;;
30247;SDS011;17063;50.892;4.702;2023-08-17T10:24:53;10.17;;;5.57;;
30247;SDS011;17063;50.892;4.702;2023-08-17T10:27:21;6.93;;;4.87;;
30247;SDS011;17063;50.892;4.702;2023-08-17T10:29:48;11.83;;;5.20;;
30247;SDS011;17063;50.892;4.702;2023-08-17T10:32:17;11.33;;;6.00;;
30247;SDS011;17063;50.892;4.702;2023-08-17T10:34:44;8.97;;;5.43;;
30247;SDS011;17063;50.892;4.702;2023-08-17T10:37:11;8.63;;;5.30;;
30247;SDS011;17063;50.892;4.702;2023-08-17T10:39:44;10.43;;;5.30;;
30247;SDS011;17063;50.892;4.702;2023-08-17T10:42:12;6.60;;;5.70;;
30247;SDS011;17063;50.892;4.702;2023-08-17T10:44:47;8.93;;;6.20;;
30247;SDS011;17063;50.892;4.702;2023-08-17T10:47:32;7.30;;;5.70;;
30247;SDS011;17063;50.892;4.702;2023-08-17T10:50:21;12.07;;;7.53;;
30247;SDS011;17063;50.892;4.702;2023-08-17T10:52:49;13.53;;;7.20;;
30247;SDS011;17063;50.892;4.702;2023-08-17T10:55:17;11.57;;;7.47;;
30247;SDS011;17063;50.892;4.702;2023-08-17T10:57:46;11.63;;;7.17;;
30247;SDS011;17063;50.892;4.702;2023-08-17T11:02:59;8.80;;;7.23;;
30247;SDS011;17063;50.892;4.702;2023-08-17T11:05:43;10.40;;;7.97;;
30247;SDS011;17063;50.892;4.702;2023-08-17T11:08:30;9.77;;;7.33;;
30247;SDS011;17063;50.892;4.702;2023-08-17T11:13:30;10.67;;;7.37;;
30247;SDS011;17063;50.892;4.702;2023-08-17T11:15:58;11.60;;;7.47;;
30247;SDS011;17063;50.892;4.702;2023-08-17T11:18:29;11.20;;;7.47;;
30247;SDS011;17063;50.892;4.702;2023-08-17T11:20:56;10.30;;;7.87;;
30247;SDS011;17063;50.892;4.702;2023-08-17T11:23:23;11.33;;;8.13;;
30247;SDS011;17063;50.892;4.702;2023-08-17T11:25:52;15.07;;;9.17;;
30247;SDS011;17063;50.892;4.702;2023-08-17T11:28:19;17.77;;;9.27;;
30247;SDS011;17063;50.892;4.702;2023-08-17T11:30:55;13.93;;;8.67;;
30247;SDS011;17063;50.892;4.702;2023-08-17T11:33:23;15.60;;;9.00;;
30247;SDS011;17063;50.892;4.702;2023-08-17T11:35:50;12.50;;;8.70;;
30247;SDS011;17063;50.892;4.702;2023-08-17T11:38:17;11.43;;;9.10;;
30247;SDS011;17063;50.892;4.702;2023-08-17T11:40:44;15.37;;;10.47;;
30247;SDS011;17063;50.892;4.702;2023-08-17T11:43:11;13.40;;;9.50;;
30247;SDS011;17063;50.892;4.702;2023-08-17T11:45:39;14.40;;;9.90;;
30247;SDS011;17063;50.892;4.702;2023-08-17T11:48:06;12.97;;;9.37;;
30247;SDS011;17063;50.892;4.702;2023-08-17T11:50:34;12.87;;;9.70;;
30247;SDS011;17063;50.892;4.702;2023-08-17T11:53:05;14.03;;;9.60;;
30247;SDS011;17063;50.892;4.702;2023-08-17T11:55:32;16.33;;;10.30;;
30247;SDS011;17063;50.892;4.702;2023-08-17T11:57:59;18.63;;;9.73;;
30247;SDS011;17063;50.892;4.702;2023-08-17T12:00:41;19.43;;;11.07;;
30247;SDS011;17063;50.892;4.702;2023-08-17T12:03:14;13.60;;;9.33;;
30247;SDS011;17063;50.892;4.702;2023-08-17T12:05:45;13.63;;;10.13;;
30247;SDS011;17063;50.892;4.702;2023-08-17T12:08:12;13.43;;;9.47;;
30247;SDS011;17063;50.892;4.702;2023-08-17T12:10:40;16.77;;;10.07;;
30247;SDS011;17063;50.892;4.702;2023-08-17T12:13:10;11.17;;;9.10;;
30247;SDS011;17063;50.892;4.702;2023-08-17T12:15:38;19.10;;;9.73;;
30247;SDS011;17063;50.892;4.702;2023-08-17T12:18:06;19.80;;;10.93;;
30247;SDS011;17063;50.892;4.702;2023-08-17T12:20:33;16.03;;;10.97;;
30247;SDS011;17063;50.892;4.702;2023-08-17T12:23:03;14.57;;;10.33;;
30247;SDS011;17063;50.892;4.702;2023-08-17T12:25:30;18.40;;;10.60;;
30247;SDS011;17063;50.892;4.702;2023-08-17T12:28:01;14.67;;;10.20;;
30247;SDS011;17063;50.892;4.702;2023-08-17T12:30:29;14.93;;;10.90;;
30247;SDS011;17063;50.892;4.702;2023-08-17T12:32:59;19.47;;;11.37;;
30247;SDS011;17063;50.892;4.702;2023-08-17T12:35:26;16.33;;;10.90;;
30247;SDS011;17063;50.892;4.702;2023-08-17T12:37:53;15.43;;;10.13;;
30247;SDS011;17063;50.892;4.702;2023-08-17T12:40:23;21.10;;;11.83;;
30247;SDS011;17063;50.892;4.702;2023-08-17T12:42:50;18.60;;;11.37;;
30247;SDS011;17063;50.892;4.702;2023-08-17T12:45:17;19.17;;;10.93;;
30247;SDS011;17063;50.892;4.702;2023-08-17T12:47:44;14.03;;;10.63;;
30247;SDS011;17063;50.892;4.702;2023-08-17T12:50:11;18.73;;;11.10;;
30247;SDS011;17063;50.892;4.702;2023-08-17T12:52:38;15.10;;;11.43;;
30247;SDS011;17063;50.892;4.702;2023-08-17T12:55:05;17.47;;;10.53;;
30247;SDS011;17063;50.892;4.702;2023-08-17T12:57:32;17.97;;;10.80;;
30247;SDS011;17063;50.892;4.702;2023-08-17T12:59:59;18.30;;;10.57;;
30247;SDS011;17063;50.892;4.702;2023-08-17T13:02:26;23.17;;;12.40;;
30247;SDS011;17063;50.892;4.702;2023-08-17T13:04:53;17.70;;;11.87;;
30247;SDS011;17063;50.892;4.702;2023-08-17T13:07:20;13.43;;;9.93;;
30247;SDS011;17063;50.892;4.702;2023-08-17T13:09:47;19.33;;;10.57;;
30247;SDS011;17063;50.892;4.702;2023-08-17T13:12:14;22.43;;;11.10;;
30247;SDS011;17063;50.892;4.702;2023-08-17T13:14:41;19.33;;;10.97;;
30247;SDS011;17063;50.892;4.702;2023-08-17T13:17:08;15.67;;;10.70;;
30247;SDS011;17063;50.892;4.702;2023-08-17T13:19:35;18.07;;;11.57;;
30247;SDS011;17063;50.892;4.702;2023-08-17T13:22:02;15.63;;;10.50;;
30247;SDS011;17063;50.892;4.702;2023-08-17T13:24:29;19.67;;;11.60;;
30247;SDS011;17063;50.892;4.702;2023-08-17T13:26:56;21.87;;;11.33;;
30247;SDS011;17063;50.892;4.702;2023-08-17T13:29:24;17.73;;;10.53;;
30247;SDS011;17063;50.892;4.702;2023-08-17T13:31:50;13.70;;;9.43;;
30247;SDS011;17063;50.892;4.702;2023-08-17T13:34:17;12.33;;;9.97;;
30247;SDS011;17063;50.892;4.702;2023-08-17T13:36:44;16.90;;;9.27;;
30247;SDS011;17063;50.892;4.702;2023-08-17T13:39:11;15.50;;;10.00;;
30247;SDS011;17063;50.892;4.702;2023-08-17T13:41:38;17.93;;;9.77;;
30247;SDS011;17063;50.892;4.702;2023-08-17T13:44:07;17.43;;;9.83;;
30247;SDS011;17063;50.892;4.702;2023-08-17T13:46:35;15.83;;;10.17;;
30247;SDS011;17063;50.892;4.702;2023-08-17T13:49:04;15.90;;;9.40;;
30247;SDS011;17063;50.892;4.702;2023-08-17T13:51:31;16.87;;;8.70;;
30247;SDS011;17063;50.892;4.702;2023-08-17T13:53:58;15.13;;;9.97;;
30247;SDS011;17063;50.892;4.702;2023-08-17T13:56:25;14.27;;;9.30;;
30247;SDS011;17063;50.892;4.702;2023-08-17T13:58:54;16.67;;;11.00;;
30247;SDS011;17063;50.892;4.702;2023-08-17T14:01:21;16.57;;;10.47;;
30247;SDS011;17063;50.892;4.702;2023-08-17T14:03:49;21.37;;;10.57;;
30247;SDS011;17063;50.892;4.702;2023-08-17T14:06:16;14.30;;;9.87;;
30247;SDS011;17063;50.892;4.702;2023-08-17T14:08:43;18.27;;;10.70;;
30247;SDS011;17063;50.892;4.702;2023-08-17T14:11:09;17.17;;;10.13;;
30247;SDS011;17063;50.892;4.702;2023-08-17T14:13:36;20.10;;;11.03;;
30247;SDS011;17063;50.892;4.702;2023-08-17T14:16:04;13.70;;;9.97;;
30247;SDS011;17063;50.892;4.702;2023-08-17T14:18:31;20.00;;;11.20;;
30247;SDS011;17063;50.892;4.702;2023-08-17T14:20:58;16.27;;;9.73;;
30247;SDS011;17063;50.892;4.702;2023-08-17T14:23:25;18.03;;;10.10;;
30247;SDS011;17063;50.892;4.702;2023-08-17T14:25:52;18.40;;;11.47;;
30247;SDS011;17063;50.892;4.702;2023-08-17T14:28:19;15.17;;;10.80;;
30247;SDS011;17063;50.892;4.702;2023-08-17T14:30:46;17.07;;;10.97;;
30247;SDS011;17063;50.892;4.702;2023-08-17T14:33:18;23.23;;;11.80;;
30247;SDS011;17063;50.892;4.702;2023-08-17T14:35:45;14.53;;;10.90;;
30247;SDS011;17063;50.892;4.702;2023-08-17T14:38:12;13.87;;;10.20;;
30247;SDS011;17063;50.892;4.702;2023-08-17T14:40:45;15.33;;;10.30;;
30247;SDS011;17063;50.892;4.702;2023-08-17T14:43:13;15.43;;;11.27;;
30247;SDS011;17063;50.892;4.702;2023-08-17T14:45:43;18.97;;;11.07;;
30247;SDS011;17063;50.892;4.702;2023-08-17T14:48:10;12.57;;;9.87;;
30247;SDS011;17063;50.892;4.702;2023-08-17T14:50:37;16.37;;;10.73;;
30247;SDS011;17063;50.892;4.702;2023-08-17T14:53:04;16.30;;;10.70;;